Time;durP1;ratioP1;P1;durP2;ratioP2;P2;SDS_P1;SDS_P2;PMS_P1;PMS_P2;Temp;Humidity;BMP_temperature;BMP_pressure;BME280_temperature;BME280_humidity;BME280_pressure;Samples;Min_cycle;Max_cycle;Signal;HPM_P1;HPM_P2
2023/12/19 00:02:14;;;;;;;0.80;0.80;;;;;;;;;;10356054;28;20182;-74
2023/12/19 00:07:14;;;;;;;0.87;0.70;;;;;;;;;;10355697;28;20659;-74
2023/12/19 00:12:14;;;;;;;2.00;0.67;;;;;;;;;;10366429;28;20256;-74
2023/12/19 00:17:14;;;;;;;0.70;0.70;;;;;;;;;;10366151;28;20495;-74
2023/12/19 00:22:15;;;;;;;0.90;0.90;;;;;;;;;;10365754;28;20229;-74
2023/12/19 00:27:15;;;;;;;0.85;0.70;;;;;;;;;;10360398;28;20506;-74
2023/12/19 00:32:15;;;;;;;0.90;0.90;;;;;;;;;;10365413;28;20194;-74
2023/12/19 00:37:15;;;;;;;0.60;0.60;;;;;;;;;;10360835;28;20659;-74
2023/12/19 00:42:15;;;;;;;0.60;0.60;;;;;;;;;;10361809;28;20211;-73
2023/12/19 00:47:16;;;;;;;0.60;0.60;;;;;;;;;;10364347;28;20193;-74
2023/12/19 00:52:16;;;;;;;0.65;0.65;;;;;;;;;;10365003;28;20287;-73
2023/12/19 00:57:16;;;;;;;0.63;0.63;;;;;;;;;;10354771;28;20275;-73
2023/12/19 01:02:16;;;;;;;0.60;0.60;;;;;;;;;;10364563;28;20185;-73
2023/12/19 01:07:17;;;;;;;0.65;0.65;;;;;;;;;;10363942;28;20550;-73
2023/12/19 01:12:20;;;;;;;0.60;0.60;;;;;;;;;;10363907;28;20205;-74
2023/12/19 01:17:20;;;;;;;0.63;0.63;;;;;;;;;;10362548;28;20276;-74
2023/12/19 01:22:20;;;;;;;0.65;0.65;;;;;;;;;;10363839;28;20621;-73
2023/12/19 01:27:21;;;;;;;0.70;0.70;;;;;;;;;;10363097;28;20241;-73
2023/12/19 01:32:21;;;;;;;0.60;0.60;;;;;;;;;;10363118;28;20606;-73
2023/12/19 01:37:21;;;;;;;0.50;0.50;;;;;;;;;;10357954;28;20331;-73
2023/12/19 01:42:23;;;;;;;0.50;0.50;;;;;;;;;;10363160;28;20201;-73
2023/12/19 01:47:23;;;;;;;0.68;0.68;;;;;;;;;;10362022;28;20263;-73
2023/12/19 01:52:23;;;;;;;0.70;0.70;;;;;;;;;;10362539;28;20227;-73
2023/12/19 01:57:24;;;;;;;0.60;0.60;;;;;;;;;;10361744;28;20217;-74
2023/12/19 02:02:24;;;;;;;0.60;0.60;;;;;;;;;;10356539;28;20271;-73
2023/12/19 02:07:24;;;;;;;0.80;0.80;;;;;;;;;;10361714;28;20189;-73
2023/12/19 02:12:25;;;;;;;0.77;0.70;;;;;;;;;;10361747;28;20240;-74
2023/12/19 02:17:25;;;;;;;0.70;0.70;;;;;;;;;;10360884;28;20553;-73
2023/12/19 02:22:25;;;;;;;0.82;0.73;;;;;;;;;;10361410;28;20567;-74
2023/12/19 02:27:25;;;;;;;0.70;0.70;;;;;;;;;;10355636;28;20228;-74
2023/12/19 02:32:26;;;;;;;0.80;0.70;;;;;;;;;;10360782;28;20296;-74
2023/12/19 02:37:27;;;;;;;0.60;0.60;;;;;;;;;;10360314;28;20545;-73
2023/12/19 02:42:27;;;;;;;0.60;0.60;;;;;;;;;;10360811;28;20193;-74
2023/12/19 02:47:27;;;;;;;0.60;0.60;;;;;;;;;;10354330;28;20240;-74
2023/12/19 02:52:27;;;;;;;0.60;0.60;;;;;;;;;;10360732;28;20706;-74
2023/12/19 02:57:28;;;;;;;0.70;0.70;;;;;;;;;;10354852;28;20244;-74
2023/12/19 03:02:28;;;;;;;0.70;0.70;;;;;;;;;;10360365;28;20654;-74
2023/12/19 03:07:28;;;;;;;0.70;0.70;;;;;;;;;;10356807;28;20272;-74
2023/12/19 03:12:28;;;;;;;1.27;0.90;;;;;;;;;;10359981;28;20288;-74
2023/12/19 03:17:28;;;;;;;0.80;0.80;;;;;;;;;;10359407;28;20232;-74
2023/12/19 03:22:29;;;;;;;0.70;0.70;;;;;;;;;;10360792;28;20189;-74
2023/12/19 03:27:29;;;;;;;0.77;0.77;;;;;;;;;;10358653;28;20288;-74
2023/12/19 03:32:30;;;;;;;0.80;0.80;;;;;;;;;;10360461;28;20224;-74
2023/12/19 03:37:31;;;;;;;0.73;0.73;;;;;;;;;;10362381;28;20678;-74
2023/12/19 03:42:33;;;;;;;0.73;0.73;;;;;;;;;;10367351;28;20658;-74
2023/12/19 03:47:33;;;;;;;2.20;0.87;;;;;;;;;;10363207;28;20594;-74
2023/12/19 03:52:33;;;;;;;0.90;0.90;;;;;;;;;;10367040;28;20218;-74
2023/12/19 03:57:33;;;;;;;0.80;0.80;;;;;;;;;;10364400;28;20255;-74
2023/12/19 04:02:34;;;;;;;3.43;2.27;;;;;;;;;;10348788;28;20197;-74
2023/12/19 04:07:34;;;;;;;20.07;10.00;;;;;;;;;;10366339;28;20193;-74
2023/12/19 04:12:34;;;;;;;5.70;3.13;;;;;;;;;;10366161;28;20189;-74
2023/12/19 04:17:34;;;;;;;36.30;18.07;;;;;;;;;;10365634;28;20235;-74
2023/12/19 04:22:35;;;;;;;10.73;4.93;;;;;;;;;;10366286;28;20562;-73
2023/12/19 04:27:35;;;;;;;2.70;1.50;;;;;;;;;;10363721;28;20241;-74
2023/12/19 04:32:36;;;;;;;1.60;1.50;;;;;;;;;;10365321;28;20277;-74
2023/12/19 04:37:36;;;;;;;1.20;1.10;;;;;;;;;;10364933;28;20985;-74
2023/12/19 04:42:36;;;;;;;2.67;2.23;;;;;;;;;;10365615;28;20329;-74
2023/12/19 04:47:37;;;;;;;2.03;1.93;;;;;;;;;;10363440;28;20217;-74
2023/12/19 04:52:38;;;;;;;0.70;0.70;;;;;;;;;;10364317;28;20193;-74
2023/12/19 04:57:38;;;;;;;1.23;1.10;;;;;;;;;;10363280;28;20754;-74
2023/12/19 05:02:38;;;;;;;1.13;0.80;;;;;;;;;;10358284;28;20206;-74
2023/12/19 05:07:39;;;;;;;0.90;0.90;;;;;;;;;;10355188;28;20610;-74
2023/12/19 05:12:39;;;;;;;1.60;1.00;;;;;;;;;;10355831;28;20193;-74
2023/12/19 05:17:39;;;;;;;1.10;1.00;;;;;;;;;;10355769;28;20215;-74
2023/12/19 05:22:40;;;;;;;0.83;0.83;;;;;;;;;;10355063;28;20178;-74
2023/12/19 05:27:43;;;;;;;1.17;1.00;;;;;;;;;;10355061;28;20241;-74
2023/12/19 05:32:44;;;;;;;1.30;0.80;;;;;;;;;;10355158;28;20197;-73
2023/12/19 05:37:44;;;;;;;11.43;1.07;;;;;;;;;;10354413;28;20213;-74
2023/12/19 05:42:44;;;;;;;1.00;1.00;;;;;;;;;;10350915;28;20280;-74
2023/12/19 05:47:44;;;;;;;0.83;0.83;;;;;;;;;;10354208;28;20205;-74
2023/12/19 05:52:45;;;;;;;1.10;1.00;;;;;;;;;;10342170;28;20292;-74
2023/12/19 05:57:45;;;;;;;1.00;1.00;;;;;;;;;;10353500;28;20220;-74
2023/12/19 06:02:48;;;;;;;1.03;0.90;;;;;;;;;;10353860;28;20412;-74
2023/12/19 06:07:48;;;;;;;1.37;1.10;;;;;;;;;;10353324;28;20193;-74
2023/12/19 06:12:48;;;;;;;1.03;1.00;;;;;;;;;;10353609;28;20677;-74
2023/12/19 06:17:49;;;;;;;1.03;1.00;;;;;;;;;;10353227;28;20233;-74
2023/12/19 06:22:49;;;;;;;0.93;0.93;;;;;;;;;;10353037;28;20250;-73
2023/12/19 06:27:49;;;;;;;1.30;1.20;;;;;;;;;;10351542;28;20237;-73
2023/12/19 06:32:50;;;;;;;1.50;1.40;;;;;;;;;;10353063;28;20190;-74
2023/12/19 06:37:50;;;;;;;1.17;1.17;;;;;;;;;;10352638;28;20480;-73
2023/12/19 06:42:50;;;;;;;2.10;1.67;;;;;;;;;;10350652;28;20304;-73
2023/12/19 06:47:50;;;;;;;1.23;1.10;;;;;;;;;;10352346;28;20197;-73
2023/12/19 06:52:50;;;;;;;4.20;1.27;;;;;;;;;;10349695;28;20900;-74
2023/12/19 06:57:51;;;;;;;1.20;1.10;;;;;;;;;;10333325;28;20509;-74
2023/12/19 07:02:51;;;;;;;1.23;1.13;;;;;;;;;;10339994;28;20256;-74
2023/12/19 07:07:51;;;;;;;1.40;1.30;;;;;;;;;;10351741;28;20182;-74
2023/12/19 07:12:52;;;;;;;1.17;1.03;;;;;;;;;;10336158;28;20248;-74
2023/12/19 07:17:52;;;;;;;1.67;1.27;;;;;;;;;;10344058;28;20292;-73
2023/12/19 07:22:52;;;;;;;1.20;1.10;;;;;;;;;;10360877;28;20557;-74
2023/12/19 07:27:52;;;;;;;1.90;1.30;;;;;;;;;;10359827;28;20331;-74
2023/12/19 07:32:52;;;;;;;1.70;1.60;;;;;;;;;;10359342;28;20190;-74
2023/12/19 07:37:53;;;;;;;2.10;1.90;;;;;;;;;;10344820;28;20217;-74
2023/12/19 07:42:53;;;;;;;2.23;1.97;;;;;;;;;;10353262;28;20197;-74
2023/12/19 07:47:53;;;;;;;4.07;3.07;;;;;;;;;;10358703;28;20201;-75
2023/12/19 07:52:53;;;;;;;2.83;1.77;;;;;;;;;;10348426;28;20206;-74
2023/12/19 07:57:54;;;;;;;1.30;1.20;;;;;;;;;;10352537;28;20221;-75
2023/12/19 08:02:54;;;;;;;1.47;1.37;;;;;;;;;;10356497;28;20193;-75
2023/12/19 08:07:54;;;;;;;1.90;1.70;;;;;;;;;;10356522;28;20499;-75
2023/12/19 08:12:54;;;;;;;8.43;3.63;;;;;;;;;;10357110;28;20221;-75
2023/12/19 08:17:55;;;;;;;7.07;2.37;;;;;;;;;;10359878;28;20221;-75
2023/12/19 08:22:55;;;;;;;5.03;2.57;;;;;;;;;;10358338;28;20449;-75
2023/12/19 08:27:56;;;;;;;2.60;1.97;;;;;;;;;;10355128;28;20245;-75
2023/12/19 08:32:56;;;;;;;1.77;1.50;;;;;;;;;;10356087;28;20409;-75
2023/12/19 08:37:57;;;;;;;1.60;1.50;;;;;;;;;;10356231;28;20635;-75
2023/12/19 08:42:57;;;;;;;1.80;1.60;;;;;;;;;;10345342;28;20202;-75
2023/12/19 08:47:59;;;;;;;1.50;1.40;;;;;;;;;;10339602;28;20206;-75
2023/12/19 08:52:59;;;;;;;1.60;1.50;;;;;;;;;;10350253;28;20186;-75
2023/12/19 08:57:59;;;;;;;4.73;2.20;;;;;;;;;;10336988;28;20628;-75
2023/12/19 09:02:59;;;;;;;4.50;2.00;;;;;;;;;;10347157;28;20313;-76
2023/12/19 09:08:00;;;;;;;1.53;1.23;;;;;;;;;;10353776;28;20197;-75
2023/12/19 09:13:00;;;;;;;1.93;1.50;;;;;;;;;;10333989;28;20190;-75
2023/12/19 09:18:02;;;;;;;1.40;1.30;;;;;;;;;;10361694;28;20222;-75
2023/12/19 09:23:03;;;;;;;2.33;1.47;;;;;;;;;;10351315;28;20182;-75
2023/12/19 09:28:03;;;;;;;1.70;1.40;;;;;;;;;;10351543;28;20242;-75
2023/12/19 09:33:03;;;;;;;3.43;1.73;;;;;;;;;;10352826;28;20457;-75
2023/12/19 09:38:04;;;;;;;3.07;2.03;;;;;;;;;;10351758;28;20280;-75
2023/12/19 09:43:04;;;;;;;3.63;1.50;;;;;;;;;;10354495;28;20452;-75
2023/12/19 09:48:05;;;;;;;1.88;1.55;;;;;;;;;;10353144;28;20734;-75
2023/12/19 09:53:07;;;;;;;1.30;1.20;;;;;;;;;;10352172;28;20505;-75
2023/12/19 09:58:08;;;;;;;1.60;1.50;;;;;;;;;;10350951;28;20591;-75
2023/12/19 10:03:09;;;;;;;4.28;2.70;;;;;;;;;;10354134;28;20178;-75
2023/12/19 10:08:10;;;;;;;1.77;1.40;;;;;;;;;;10348949;28;20193;-76
2023/12/19 10:13:10;;;;;;;4.38;1.70;;;;;;;;;;10354881;28;20204;-74
2023/12/19 10:18:11;;;;;;;2.67;1.63;;;;;;;;;;10354212;28;20307;-75
2023/12/19 10:23:11;;;;;;;2.55;1.60;;;;;;;;;;10349736;28;20186;-75
2023/12/19 10:28:12;;;;;;;2.30;1.40;;;;;;;;;;10346160;28;20372;-74
2023/12/19 10:33:13;;;;;;;1.70;1.23;;;;;;;;;;10336667;28;20564;-73
2023/12/19 10:38:14;;;;;;;2.60;1.50;;;;;;;;;;10338922;28;20251;-73
2023/12/19 10:43:14;;;;;;;3.03;1.27;;;;;;;;;;10352806;28;20300;-74
2023/12/19 10:48:15;;;;;;;2.70;1.70;;;;;;;;;;10352286;28;20186;-74
2023/12/19 10:53:15;;;;;;;3.00;1.60;;;;;;;;;;10355066;28;20200;-74
2023/12/19 10:58:18;;;;;;;1.70;1.57;;;;;;;;;;10349651;28;20232;-74
2023/12/19 11:03:30;;;;;;;2.23;1.90;;;;;;;;;;10352961;28;20252;-73
2023/12/19 11:08:30;;;;;;;2.13;1.40;;;;;;;;;;10345968;28;20197;-74
2023/12/19 11:13:32;;;;;;;1.67;1.57;;;;;;;;;;10348192;28;20204;-74
2023/12/19 11:18:53;;;;;;;8.77;4.00;;;;;;;;;;10348930;28;20661;-74
2023/12/19 11:23:59;;;;;;;1.50;1.40;;;;;;;;;;10341921;28;20194;-74
2023/12/19 11:28:59;;;;;;;3.40;1.80;;;;;;;;;;10348184;28;20268;-74
2023/12/19 11:34:01;;;;;;;1.77;1.60;;;;;;;;;;10348457;28;20193;-73
2023/12/19 11:39:21;;;;;;;1.90;1.60;;;;;;;;;;10348349;28;20224;-84
2023/12/19 11:44:35;;;;;;;2.10;1.53;;;;;;;;;;10346082;28;20678;-73
2023/12/19 11:49:38;;;;;;;2.50;1.90;;;;;;;;;;10346392;28;20259;-74
2023/12/19 11:54:38;;;;;;;3.47;1.50;;;;;;;;;;10348790;28;20197;-73
2023/12/19 11:59:46;;;;;;;1.37;1.27;;;;;;;;;;10351869;28;20725;-75
2023/12/19 12:04:46;;;;;;;2.17;1.80;;;;;;;;;;10344684;28;20213;-75
2023/12/19 12:09:46;;;;;;;4.70;1.50;;;;;;;;;;10338703;28;20193;-74
2023/12/19 12:14:47;;;;;;;1.38;1.20;;;;;;;;;;10352980;28;20272;-73
2023/12/19 12:19:51;;;;;;;1.33;1.23;;;;;;;;;;10356557;28;20225;-75
2023/12/19 12:24:53;;;;;;;1.50;1.40;;;;;;;;;;10358145;28;20223;-74
2023/12/19 12:29:54;;;;;;;1.48;1.20;;;;;;;;;;10355616;28;20313;-74
2023/12/19 12:34:54;;;;;;;4.10;1.10;;;;;;;;;;10354253;28;20198;-75
2023/12/19 12:40:00;;;;;;;1.40;1.00;;;;;;;;;;10355377;28;20220;-74
2023/12/19 12:45:01;;;;;;;1.47;1.10;;;;;;;;;;10354336;28;20213;-75
2023/12/19 12:50:02;;;;;;;1.07;1.07;;;;;;;;;;10356024;28;20202;-74
2023/12/19 12:55:02;;;;;;;1.30;1.20;;;;;;;;;;10354552;28;20228;-74
2023/12/19 13:00:04;;;;;;;1.13;1.07;;;;;;;;;;10354109;28;20213;-74
2023/12/19 13:05:04;;;;;;;2.37;1.27;;;;;;;;;;10358379;28;20570;-74
2023/12/19 13:10:07;;;;;;;1.40;1.30;;;;;;;;;;10354080;28;20197;-74
2023/12/19 13:15:08;;;;;;;1.40;1.30;;;;;;;;;;10355290;28;20750;-74
2023/12/19 13:20:10;;;;;;;3.57;1.60;;;;;;;;;;10350688;28;20217;-74
2023/12/19 13:25:10;;;;;;;1.60;1.20;;;;;;;;;;10342826;28;20694;-74
2023/12/19 13:30:12;;;;;;;1.37;1.23;;;;;;;;;;10350177;28;20252;-74
2023/12/19 13:35:12;;;;;;;1.27;1.17;;;;;;;;;;10349089;28;20193;-73
2023/12/19 13:40:12;;;;;;;2.60;1.50;;;;;;;;;;10336383;28;20212;-74
2023/12/19 13:45:13;;;;;;;1.30;1.13;;;;;;;;;;10340270;28;20189;-74
2023/12/19 13:50:13;;;;;;;3.03;1.20;;;;;;;;;;10345431;28;20198;-74
2023/12/19 13:55:14;;;;;;;1.40;1.30;;;;;;;;;;10340360;28;20448;-74
2023/12/19 14:00:17;;;;;;;2.87;1.50;;;;;;;;;;10329555;28;20217;-74
2023/12/19 14:05:18;;;;;;;1.53;1.37;;;;;;;;;;10328659;28;20539;-74
2023/12/19 14:10:18;;;;;;;1.27;1.10;;;;;;;;;;10330233;28;20186;-74
2023/12/19 14:15:19;;;;;;;1.03;0.93;;;;;;;;;;10343402;28;20260;-72
2023/12/19 14:26:23;;;;;;;1.43;1.33;;;;;;;;;;10348788;28;20268;-73
2023/12/19 14:31:23;;;;;;;1.40;1.30;;;;;;;;;;10354709;28;20268;-73
2023/12/19 14:36:23;;;;;;;1.33;1.20;;;;;;;;;;10351182;28;20244;-74
2023/12/19 14:41:24;;;;;;;1.77;1.20;;;;;;;;;;10353435;28;20201;-74
2023/12/19 14:46:24;;;;;;;1.43;1.27;;;;;;;;;;10352844;28;20181;-73
2023/12/19 14:51:24;;;;;;;1.37;1.23;;;;;;;;;;10353213;28;20181;-73
2023/12/19 14:56:25;;;;;;;1.00;1.00;;;;;;;;;;10352723;28;20197;-73
2023/12/19 15:01:26;;;;;;;2.33;1.30;;;;;;;;;;10353277;28;20266;-73
2023/12/19 15:06:27;;;;;;;1.93;1.50;;;;;;;;;;10355435;28;20180;-73
2023/12/19 15:11:27;;;;;;;13.23;5.93;;;;;;;;;;10349084;28;20775;-73
2023/12/19 15:16:27;;;;;;;2.50;1.70;;;;;;;;;;10355100;28;20463;-73
2023/12/19 15:21:27;;;;;;;7.23;4.00;;;;;;;;;;10352666;28;20768;-74
2023/12/19 15:26:27;;;;;;;3.83;3.30;;;;;;;;;;10351691;28;20216;-74
2023/12/19 15:31:28;;;;;;;12.23;6.97;;;;;;;;;;10345923;28;20667;-74
2023/12/19 15:36:28;;;;;;;2.17;1.77;;;;;;;;;;10356641;28;20189;-74
2023/12/19 15:41:28;;;;;;;8.43;4.33;;;;;;;;;;10360698;28;20206;-74
2023/12/19 15:46:30;;;;;;;4.70;2.53;;;;;;;;;;10358341;28;20281;-74
2023/12/19 15:51:30;;;;;;;8.40;4.43;;;;;;;;;;10362791;28;20560;-74
2023/12/19 15:56:31;;;;;;;15.77;6.03;;;;;;;;;;10359962;28;20213;-74
2023/12/19 16:01:32;;;;;;;5.40;2.97;;;;;;;;;;10354480;28;20217;-74
2023/12/19 16:06:32;;;;;;;7.90;4.03;;;;;;;;;;10360196;28;20300;-75
2023/12/19 16:11:34;;;;;;;3.60;2.60;;;;;;;;;;10354724;28;20185;-74
2023/12/19 16:16:36;;;;;;;4.67;1.73;;;;;;;;;;10354095;28;20198;-74
2023/12/19 16:21:36;;;;;;;6.50;2.30;;;;;;;;;;10354192;28;20301;-75
2023/12/19 16:26:37;;;;;;;1.90;1.80;;;;;;;;;;10317052;28;20277;-74
2023/12/19 16:31:40;;;;;;;2.10;1.90;;;;;;;;;;10330973;28;20547;-74
2023/12/19 16:36:44;;;;;;;3.07;2.10;;;;;;;;;;10358501;28;20601;-74
2023/12/19 16:41:44;;;;;;;8.03;2.90;;;;;;;;;;10354033;28;20633;-74
2023/12/19 16:46:44;;;;;;;6.20;2.70;;;;;;;;;;10352760;28;20240;-74
2023/12/19 16:51:44;;;;;;;2.70;2.27;;;;;;;;;;10358985;28;20198;-74
2023/12/19 16:56:46;;;;;;;4.73;2.10;;;;;;;;;;10349519;28;20288;-74
2023/12/19 17:01:49;;;;;;;4.47;3.30;;;;;;;;;;10353028;28;20624;-74
2023/12/19 17:06:52;;;;;;;5.93;2.47;;;;;;;;;;10357821;28;20230;-74
2023/12/19 17:11:52;;;;;;;4.63;2.40;;;;;;;;;;10356554;28;20656;-74
2023/12/19 17:16:53;;;;;;;4.10;3.00;;;;;;;;;;10355086;28;20237;-74
2023/12/19 17:21:53;;;;;;;4.47;3.10;;;;;;;;;;10357711;28;20951;-74
2023/12/19 17:26:53;;;;;;;3.90;2.73;;;;;;;;;;10359205;28;20256;-75
2023/12/19 17:31:53;;;;;;;3.13;2.70;;;;;;;;;;10356292;28;20186;-75
2023/12/19 17:36:54;;;;;;;6.60;3.77;;;;;;;;;;10339913;28;20190;-74
2023/12/19 17:41:54;;;;;;;5.40;3.20;;;;;;;;;;10357607;28;20201;-74
2023/12/19 17:46:54;;;;;;;7.17;3.20;;;;;;;;;;10355786;28;20281;-74
2023/12/19 17:51:54;;;;;;;2.40;1.53;;;;;;;;;;10350396;28;20197;-74
2023/12/19 17:56:57;;;;;;;8.17;3.53;;;;;;;;;;10356047;28;20221;-74
2023/12/19 18:01:58;;;;;;;4.83;2.50;;;;;;;;;;10333331;28;20205;-74
2023/12/19 18:06:58;;;;;;;6.57;2.93;;;;;;;;;;10337398;28;20202;-74
2023/12/19 18:11:59;;;;;;;8.57;3.70;;;;;;;;;;10342621;28;20202;-74
2023/12/19 18:17:03;;;;;;;5.33;3.90;;;;;;;;;;10343656;28;20552;-74
2023/12/19 18:22:03;;;;;;;2.80;2.37;;;;;;;;;;10349393;28;20562;-74
2023/12/19 18:27:04;;;;;;;7.43;3.20;;;;;;;;;;10344836;28;20230;-74
2023/12/19 18:32:04;;;;;;;5.30;3.93;;;;;;;;;;10351936;28;21017;-74
2023/12/19 18:37:04;;;;;;;6.60;4.00;;;;;;;;;;10351605;28;20578;-74
2023/12/19 18:42:05;;;;;;;8.73;5.77;;;;;;;;;;10340788;28;20197;-75
2023/12/19 18:47:05;;;;;;;9.30;4.67;;;;;;;;;;10332797;28;20667;-74
2023/12/19 18:52:05;;;;;;;5.97;3.80;;;;;;;;;;10336130;28;20728;-74
2023/12/19 18:57:05;;;;;;;6.07;4.60;;;;;;;;;;10328392;28;20216;-74
2023/12/19 19:02:06;;;;;;;7.30;4.87;;;;;;;;;;10324465;28;20208;-74
2023/12/19 19:07:07;;;;;;;7.40;4.33;;;;;;;;;;10334286;28;20192;-74
2023/12/19 19:12:07;;;;;;;5.80;4.47;;;;;;;;;;10349259;28;20663;-74
2023/12/19 19:17:08;;;;;;;8.33;5.50;;;;;;;;;;10350515;28;20804;-75
2023/12/19 19:22:08;;;;;;;10.87;6.50;;;;;;;;;;10350975;28;20189;-75
2023/12/19 19:27:09;;;;;;;11.23;5.07;;;;;;;;;;10350156;28;20326;-74
2023/12/19 19:32:14;;;;;;;14.23;6.60;;;;;;;;;;10348716;28;20197;-73
2023/12/19 19:37:15;;;;;;;10.67;5.90;;;;;;;;;;10350730;28;20255;-74
2023/12/19 19:42:16;;;;;;;23.03;8.73;;;;;;;;;;10350213;28;20272;-74
2023/12/19 19:47:16;;;;;;;9.23;5.30;;;;;;;;;;10351326;28;20194;-73
2023/12/19 19:52:16;;;;;;;13.10;6.43;;;;;;;;;;10342749;28;20213;-74
2023/12/19 19:57:16;;;;;;;4.00;3.03;;;;;;;;;;10343473;28;20637;-73
2023/12/19 20:02:17;;;;;;;18.40;7.77;;;;;;;;;;10350733;28;20239;-74
2023/12/19 20:07:17;;;;;;;7.60;4.53;;;;;;;;;;10336605;28;20189;-74
2023/12/19 20:12:17;;;;;;;7.00;2.47;;;;;;;;;;10351047;28;20818;-74
2023/12/19 20:17:17;;;;;;;5.00;3.87;;;;;;;;;;10348164;28;20405;-74
2023/12/19 20:22:18;;;;;;;12.90;6.20;;;;;;;;;;10356160;28;20490;-74
2023/12/19 20:27:18;;;;;;;9.57;5.23;;;;;;;;;;10346701;28;20587;-75
2023/12/19 20:32:18;;;;;;;6.57;4.67;;;;;;;;;;10340475;28;20198;-74
2023/12/19 20:37:18;;;;;;;5.00;3.00;;;;;;;;;;10344230;28;20762;-74
2023/12/19 20:42:19;;;;;;;4.63;3.30;;;;;;;;;;10356723;28;20444;-74
2023/12/19 20:47:20;;;;;;;4.03;3.63;;;;;;;;;;10356944;28;20212;-74
2023/12/19 20:52:20;;;;;;;3.57;3.10;;;;;;;;;;10355788;28;20212;-75
2023/12/19 20:57:20;;;;;;;3.87;2.90;;;;;;;;;;10356110;28;20506;-75
2023/12/19 21:02:21;;;;;;;2.83;2.60;;;;;;;;;;10356369;28;20189;-75
2023/12/19 21:07:23;;;;;;;3.83;2.50;;;;;;;;;;10355148;28;20248;-75
2023/12/19 21:12:23;;;;;;;3.10;2.80;;;;;;;;;;10355710;28;20284;-75
2023/12/19 21:17:23;;;;;;;3.33;3.03;;;;;;;;;;10355353;28;20219;-75
2023/12/19 21:22:23;;;;;;;3.53;3.20;;;;;;;;;;10354726;28;20192;-74
2023/12/19 21:27:24;;;;;;;3.33;3.00;;;;;;;;;;10355466;28;20588;-75
2023/12/19 21:32:24;;;;;;;3.63;3.30;;;;;;;;;;10355104;28;20208;-76
2023/12/19 21:37:24;;;;;;;3.97;3.50;;;;;;;;;;10355241;28;20674;-75
2023/12/19 21:42:24;;;;;;;4.77;3.13;;;;;;;;;;10355727;28;20190;-76
2023/12/19 21:47:25;;;;;;;3.87;3.53;;;;;;;;;;10355887;28;20204;-76
2023/12/19 21:52:25;;;;;;;3.43;2.97;;;;;;;;;;10354933;28;20563;-76
2023/12/19 21:57:25;;;;;;;2.93;2.63;;;;;;;;;;10355062;28;20217;-75
2023/12/19 22:02:27;;;;;;;3.63;3.33;;;;;;;;;;10355019;28;20193;-75
2023/12/19 22:07:28;;;;;;;4.10;3.47;;;;;;;;;;10354353;28;20706;-75
2023/12/19 22:12:28;;;;;;;4.17;3.77;;;;;;;;;;10354714;28;20193;-75
2023/12/19 22:17:29;;;;;;;4.23;3.83;;;;;;;;;;10353997;28;20205;-75
2023/12/19 22:22:29;;;;;;;3.73;3.33;;;;;;;;;;10354362;28;20182;-75
2023/12/19 22:27:29;;;;;;;7.37;4.27;;;;;;;;;;10354337;28;20237;-75
2023/12/19 22:32:29;;;;;;;4.00;3.70;;;;;;;;;;10353371;28;20204;-75
2023/12/19 22:37:30;;;;;;;3.90;3.40;;;;;;;;;;10354192;28;20229;-75
2023/12/19 22:42:30;;;;;;;7.95;4.85;;;;;;;;;;10353756;28;20201;-75
2023/12/19 22:47:30;;;;;;;4.33;3.93;;;;;;;;;;10350357;28;20209;-75
2023/12/19 22:52:30;;;;;;;5.57;4.33;;;;;;;;;;10353476;28;20213;-75
2023/12/19 22:57:30;;;;;;;7.23;3.63;;;;;;;;;;10353864;28;20235;-74
2023/12/19 23:02:31;;;;;;;4.57;3.63;;;;;;;;;;10349083;28;20186;-75
2023/12/19 23:07:31;;;;;;;4.43;4.00;;;;;;;;;;10351014;28;20204;-76
2023/12/19 23:12:31;;;;;;;4.17;3.60;;;;;;;;;;10348115;28;20247;-76
2023/12/19 23:17:32;;;;;;;4.40;3.57;;;;;;;;;;10353059;28;20268;-75
2023/12/19 23:22:32;;;;;;;4.93;4.00;;;;;;;;;;10352821;28;20444;-75
2023/12/19 23:27:33;;;;;;;5.60;4.38;;;;;;;;;;10345399;28;20647;-75
2023/12/19 23:32:33;;;;;;;5.17;4.50;;;;;;;;;;10351967;28;20209;-76
2023/12/19 23:37:33;;;;;;;5.60;4.00;;;;;;;;;;10352548;28;20299;-76
2023/12/19 23:42:34;;;;;;;5.67;4.03;;;;;;;;;;10352567;28;20263;-76
2023/12/19 23:47:34;;;;;;;3.85;3.45;;;;;;;;;;10352201;28;20200;-75
2023/12/19 23:52:34;;;;;;;5.10;3.90;;;;;;;;;;10351924;28;20205;-76
2023/12/19 23:57:35;;;;;;;4.37;3.57;;;;;;;;;;10359684;28;20275;-75
